PIK weather

Glasgow Prestwick Airport
Glasgow, Scotland, United Kingdom

Public forecast

Using degrees Celsius for public forecast. Weather courtesy of forecast.io.

METAR (pilot weather report)

Retrieved 2019/04/22 08:20 UTC (16 minutes ago):

EGPK 220820Z 12012KT CAVOK 17/07 Q1007

TAF (pilot weather forecast)

Retrieved 2019/04/22 06:00 UTC (3 hours ago):

TAF EGPK 220459Z 2206/2306 12009KT CAVOK PROB30 TEMPO 2206/2207 7000